createdAt,value
2023-01-12T00:03:17.114Z,7.57
2023-01-12T00:08:18.931Z,8.38
2023-01-12T00:13:20.794Z,7.18
2023-01-12T00:18:22.663Z,3.40
2023-01-12T00:23:26.228Z,6.75
2023-01-12T00:28:28.077Z,7.55
2023-01-12T00:33:29.963Z,14.25
2023-01-12T00:38:33.807Z,7.72
2023-01-12T00:43:54.596Z,6.65
2023-01-12T00:48:56.481Z,8.35
2023-01-12T00:53:58.376Z,13.00
2023-01-12T00:59:00.392Z,9.40
2023-01-12T01:04:02.723Z,6.57
2023-01-12T01:09:05.184Z,5.88
2023-01-12T01:14:07.230Z,9.38
2023-01-12T01:19:10.113Z,12.32
2023-01-12T01:24:13.695Z,7.88
2023-01-12T01:29:15.546Z,8.88
2023-01-12T01:34:18.004Z,9.98
2023-01-12T01:39:19.853Z,7.68
2023-01-12T01:44:30.661Z,6.47
2023-01-12T01:49:34.636Z,10.73
2023-01-12T01:54:48.890Z,8.52
2023-01-12T01:59:55.179Z,10.13
2023-01-12T02:04:57.597Z,4.05
2023-01-12T02:09:59.479Z,8.52
2023-01-12T02:15:19.686Z,8.63
2023-01-12T02:20:40.650Z,7.38
2023-01-12T02:26:16.362Z,4.32
2023-01-12T02:31:30.054Z,8.10
2023-01-12T02:36:31.877Z,9.85
2023-01-12T02:41:56.985Z,7.60
2023-01-12T02:47:01.617Z,7.82
2023-01-12T02:52:07.707Z,7.70
2023-01-12T02:57:11.057Z,10.80
2023-01-12T03:02:19.252Z,11.02
2023-01-12T03:07:45.540Z,10.27
2023-01-12T03:12:51.532Z,6.68
2023-01-12T03:18:03.678Z,7.68
2023-01-12T03:23:19.379Z,8.63
2023-01-12T03:28:24.962Z,10.65
2023-01-12T03:33:27.283Z,20.33
2023-01-12T03:38:50.610Z,12.13
2023-01-12T03:43:58.059Z,5.95
2023-01-12T03:49:02.951Z,6.82
2023-01-12T03:54:08.345Z,8.75
2023-01-12T03:59:10.319Z,9.13
2023-01-12T04:04:12.170Z,6.00
2023-01-12T04:09:14.183Z,7.85
2023-01-12T04:14:15.972Z,11.23
2023-01-12T04:19:17.765Z,11.73
2023-01-12T04:24:19.599Z,5.07
2023-01-12T04:29:21.380Z,9.40
2023-01-12T04:34:23.769Z,4.32
2023-01-12T04:39:25.583Z,14.35
2023-01-12T04:44:27.446Z,5.95
2023-01-12T04:49:29.279Z,10.73
2023-01-12T04:54:31.096Z,8.30
2023-01-12T04:59:32.903Z,7.05
2023-01-12T05:04:34.753Z,6.75
2023-01-12T05:09:55.518Z,8.38
2023-01-12T05:14:57.395Z,14.60
2023-01-12T05:20:00.790Z,5.00
2023-01-12T05:25:03.020Z,12.68
2023-01-12T05:30:05.771Z,4.97
2023-01-12T05:35:08.761Z,8.50
2023-01-12T05:40:11.457Z,9.07
2023-01-12T05:45:13.350Z,4.13
2023-01-12T05:50:15.281Z,5.75
2023-01-12T05:55:17.117Z,11.45
2023-01-12T06:00:19.362Z,10.45
2023-01-12T06:05:21.253Z,10.65
2023-01-12T06:10:23.103Z,17.70
2023-01-12T06:15:24.923Z,11.77
2023-01-12T06:20:26.769Z,14.40
2023-01-12T06:25:30.158Z,12.60
2023-01-12T06:30:31.970Z,9.80
2023-01-12T06:35:33.875Z,4.55
2023-01-12T06:40:35.683Z,16.15
2023-01-12T06:45:37.618Z,5.00
2023-01-12T06:50:39.453Z,9.57
2023-01-12T07:01:13.940Z,14.50
2023-01-12T07:06:16.762Z,13.18
2023-01-12T07:11:18.708Z,11.23
2023-01-12T07:16:20.922Z,7.90
2023-01-12T07:21:22.846Z,8.68
2023-01-12T07:26:25.077Z,10.88
2023-01-12T07:31:27.277Z,10.45
2023-01-12T07:36:29.111Z,11.40
2023-01-12T07:41:49.772Z,6.22
2023-01-12T07:46:52.417Z,2.33
2023-01-12T07:51:55.614Z,7.50
2023-01-12T07:56:58.075Z,15.60
2023-01-12T08:01:59.997Z,4.22
2023-01-12T08:07:01.914Z,3.88
2023-01-12T08:12:03.934Z,5.00
2023-01-12T08:17:13.968Z,9.55
2023-01-12T08:22:20.567Z,4.95
2023-01-12T08:27:26.848Z,8.13
2023-01-12T08:32:29.330Z,8.05
2023-01-12T08:37:32.954Z,7.65
2023-01-12T08:42:34.924Z,8.85
2023-01-12T08:47:37.698Z,5.95
2023-01-12T08:52:39.595Z,5.57
2023-01-12T08:57:41.424Z,5.13
2023-01-12T09:02:43.522Z,5.40
2023-01-12T09:07:45.385Z,9.55
2023-01-12T09:12:47.290Z,10.35
2023-01-12T09:17:55.623Z,7.97
2023-01-12T09:22:57.464Z,4.70
2023-01-12T09:27:59.291Z,4.25
2023-01-12T09:33:01.332Z,6.50
2023-01-12T09:38:03.189Z,5.10
2023-01-12T09:43:23.576Z,8.50
2023-01-12T09:48:26.097Z,3.33
2023-01-12T09:53:34.634Z,4.28
2023-01-12T09:58:54.003Z,3.63
2023-01-12T10:03:56.422Z,6.75
2023-01-12T10:09:20.481Z,5.15
2023-01-12T10:14:48.578Z,5.53
2023-01-12T10:19:56.156Z,3.88
2023-01-12T10:24:59.691Z,5.78
2023-01-12T10:30:02.270Z,6.20
2023-01-12T10:35:04.409Z,2.85
2023-01-12T10:40:06.839Z,2.67
2023-01-12T10:45:22.630Z,5.75
2023-01-12T10:50:31.584Z,5.57
2023-01-12T10:55:39.728Z,2.90
2023-01-12T11:00:48.821Z,4.80
2023-01-12T11:05:50.748Z,4.18
2023-01-12T11:10:52.810Z,6.40
2023-01-12T11:16:09.593Z,3.40
2023-01-12T11:21:15.955Z,6.95
2023-01-12T11:26:22.824Z,2.78
2023-01-12T11:31:40.003Z,4.30
2023-01-12T11:36:46.842Z,2.92
2023-01-12T11:42:14.062Z,5.03
2023-01-12T11:47:21.176Z,5.05
2023-01-12T11:52:25.485Z,4.50
2023-01-12T11:57:27.272Z,2.22
2023-01-12T12:02:35.193Z,2.47
2023-01-12T12:08:00.360Z,2.80
2023-01-12T12:13:23.781Z,3.88
2023-01-12T12:18:31.604Z,3.10
2023-01-12T12:23:54.856Z,7.78
2023-01-12T12:29:05.760Z,3.55
2023-01-12T12:34:16.502Z,2.42
2023-01-12T12:39:57.711Z,2.75
2023-01-12T12:45:16.685Z,2.92
2023-01-12T12:50:23.699Z,1.00
2023-01-12T12:55:27.062Z,2.75
2023-01-12T13:00:42.691Z,1.40
2023-01-12T13:05:47.559Z,3.20
2023-01-12T13:10:58.893Z,2.58
2023-01-12T13:16:15.845Z,1.27
2023-01-12T13:21:26.860Z,4.95
2023-01-12T13:26:41.341Z,1.90
2023-01-12T13:31:43.281Z,0.50
2023-01-12T13:36:45.136Z,0.47
2023-01-12T13:42:07.186Z,1.00
2023-01-12T13:47:19.164Z,0.30
2023-01-12T13:52:28.908Z,0.73
2023-01-12T13:57:32.011Z,0.30
2023-01-12T14:02:34.444Z,1.48
2023-01-12T14:07:36.253Z,1.48
2023-01-12T14:13:02.446Z,3.30
2023-01-12T14:18:09.370Z,2.08
2023-01-12T14:23:21.345Z,3.17
2023-01-12T14:28:23.812Z,1.42
2023-01-12T14:33:29.343Z,0.70
2023-01-12T14:38:34.394Z,0.50
2023-01-12T14:43:55.329Z,1.23
2023-01-12T14:49:20.078Z,1.05
2023-01-12T14:54:26.597Z,0.77
2023-01-12T14:59:38.373Z,1.60
2023-01-12T15:04:54.018Z,1.38
2023-01-12T15:09:58.192Z,3.45
2023-01-12T15:15:52.226Z,1.55
2023-01-12T15:21:12.781Z,0.85
2023-01-12T15:31:29.626Z,1.38
2023-01-12T15:36:31.557Z,1.05
2023-01-12T15:41:52.260Z,2.22
2023-01-12T15:46:54.092Z,1.10
2023-01-12T15:51:56.093Z,1.88
2023-01-12T15:56:59.699Z,2.05
2023-01-12T16:02:01.784Z,3.83
2023-01-12T16:07:03.726Z,0.70
2023-01-12T16:12:05.867Z,1.23
2023-01-12T16:17:07.723Z,1.58
2023-01-12T16:22:23.301Z,1.83
2023-01-12T16:27:27.257Z,3.90
2023-01-12T16:32:29.106Z,1.48
2023-01-12T16:37:33.457Z,1.38
2023-01-12T16:42:35.375Z,2.10
2023-01-12T16:47:37.207Z,3.45
2023-01-12T16:52:40.801Z,2.60
2023-01-12T16:57:42.817Z,1.73
2023-01-12T17:02:44.717Z,4.18
2023-01-12T17:07:48.553Z,6.28
2023-01-12T17:12:54.088Z,3.03
2023-01-12T17:18:00.489Z,1.52
2023-01-12T17:23:03.105Z,2.72
2023-01-12T17:28:05.230Z,2.83
2023-01-12T17:33:07.463Z,2.10
2023-01-12T17:38:09.296Z,2.83
2023-01-12T17:43:14.819Z,5.28
2023-01-12T17:48:19.590Z,5.60
2023-01-12T17:53:21.981Z,7.43
2023-01-12T17:58:24.265Z,2.67
2023-01-12T18:03:26.298Z,2.75
2023-01-12T18:08:29.054Z,3.10
2023-01-12T18:13:31.476Z,3.65
2023-01-12T18:18:33.732Z,3.38
2023-01-12T18:23:36.719Z,2.42
2023-01-12T18:28:39.276Z,3.30
2023-01-12T18:33:42.286Z,3.60
2023-01-12T18:38:45.374Z,4.75
2023-01-12T18:43:50.429Z,1.98
2023-01-12T18:48:52.709Z,5.47
2023-01-12T18:53:55.382Z,0.80
2023-01-12T18:58:57.459Z,3.47
2023-01-12T19:03:59.781Z,3.03
2023-01-12T19:09:20.598Z,4.07
2023-01-12T19:14:41.302Z,1.40
2023-01-12T19:19:43.264Z,1.88
2023-01-12T19:25:04.021Z,2.03
2023-01-12T19:30:06.867Z,1.02
2023-01-12T19:35:11.307Z,1.55
2023-01-12T19:40:21.191Z,1.58
2023-01-12T19:45:23.281Z,1.38
2023-01-12T19:50:25.115Z,0.57
2023-01-12T19:55:27.043Z,2.90
2023-01-12T20:00:30.087Z,2.42
2023-01-12T20:05:31.973Z,1.52
2023-01-12T20:10:35.359Z,0.60
2023-01-12T20:15:38.843Z,0.43
2023-01-12T20:20:41.243Z,0.20
2023-01-12T20:25:44.821Z,0.20
2023-01-12T20:30:46.882Z,0.63
2023-01-12T20:35:50.028Z,1.58
2023-01-12T20:40:52.693Z,0.90
2023-01-12T20:45:54.550Z,0.50
2023-01-12T20:50:56.416Z,0.30
2023-01-12T20:55:58.261Z,0.85
2023-01-12T21:01:00.261Z,0.43
2023-01-12T21:06:02.322Z,0.73
2023-01-12T21:11:04.602Z,0.50
2023-01-12T21:16:09.055Z,0.45
2023-01-12T21:21:12.306Z,0.98
2023-01-12T21:26:14.131Z,0.88
2023-01-12T21:31:16.251Z,3.03
2023-01-12T21:36:18.841Z,1.92
2023-01-12T21:41:21.813Z,1.08
2023-01-12T21:46:23.656Z,0.85
2023-01-12T21:51:25.557Z,2.42
2023-01-12T21:56:27.431Z,0.40
2023-01-12T22:01:29.330Z,0.75
2023-01-12T22:06:31.320Z,1.00
2023-01-12T22:11:33.145Z,0.40
2023-01-12T22:16:35.016Z,0.70
2023-01-12T22:21:36.863Z,1.42
2023-01-12T22:26:38.791Z,0.60
2023-01-12T22:31:40.719Z,2.80
2023-01-12T22:36:45.415Z,1.35
2023-01-12T22:41:50.560Z,0.63
2023-01-12T22:46:52.692Z,0.35
2023-01-12T22:51:55.671Z,0.98
2023-01-12T22:56:57.502Z,0.30
2023-01-12T23:02:19.336Z,0.75
2023-01-12T23:07:21.654Z,0.38
2023-01-12T23:12:23.489Z,0.30
2023-01-12T23:17:26.281Z,0.10
2023-01-12T23:22:31.709Z,0.98
2023-01-12T23:27:33.749Z,1.65
2023-01-12T23:32:35.557Z,0.40
2023-01-12T23:37:37.427Z,0.75
2023-01-12T23:42:39.316Z,1.50
2023-01-12T23:47:41.244Z,1.60
2023-01-12T23:52:43.091Z,0.40
2023-01-12T23:57:48.452Z,1.70
